logo
Rechercher aéroport 
image banner adimage banner adimage banner ad
image banner ad

3O8 - Harris Ranch

Situé à Coalinga, United States

ICAO - 3O8, IATA -

Données fournies par Airmate  

Information générale

Coordonnées: N36°14'53" W120°14'18"
Élévation : 470 feet MSL.
Variation magnétique : 15° East
Voir autres Aéroports à California

Données opérationnelles

Special qualification required
Heure actuelle UTC:
Heure actuelle locale:
Météo à : KNLC - Lemoore Nas (Reeves Fld) ( 27 km )
METAR: KNLC 281156Z AUTO 32008KT 10SM CLR 17/09 A2995 RMK AO2 SLP140 T01720089 10222 20167 53003
TAF: TAF KNLC 2807/2907 32008KT 9999 FEW200 QNH2987INS FM290200 35010KT 9999 FEW250 QNH2990INS AUTOMATED SENSOR METWATCH 2807 TIL 2815 T16/2812Z T34/2823Z FS30189
Voir NOTAMs / SUP AIP / TFR affectant cet aéroport [VIEW]
Fréquences de communication: [VIEW]

Pistes:

Identifiant RWYQFULongueur (ft)Largeur (ft)SurfaceLDA (ft)
14282030ASPH
32282030ASPH

Coordonnées de l'aéroport

Adresse: Coalinga United States

Vue satellite de 3O8